sensor_id;sensor_type;location;lat;lon;timestamp;pressure;altitude;pressure_sealevel;temperature;humidity
61682;BME280;47577;43.610;25.010;2023-05-23T00:01:36;100189.03;;;14.25;89.52
61682;BME280;47577;43.610;25.010;2023-05-23T00:04:03;100202.72;;;14.37;90.17
61682;BME280;47577;43.610;25.010;2023-05-23T00:06:29;100209.94;;;14.35;87.93
61682;BME280;47577;43.610;25.010;2023-05-23T00:08:55;100198.78;;;14.26;88.16
61682;BME280;47577;43.610;25.010;2023-05-23T00:11:21;100200.28;;;14.32;88.67
61682;BME280;47577;43.610;25.010;2023-05-23T00:13:51;100198.22;;;14.20;86.99
61682;BME280;47577;43.610;25.010;2023-05-23T00:16:18;100208.69;;;14.24;88.20
61682;BME280;47577;43.610;25.010;2023-05-23T00:18:43;100208.91;;;14.20;88.02
61682;BME280;47577;43.610;25.010;2023-05-23T00:21:13;100199.75;;;14.08;88.26
61682;BME280;47577;43.610;25.010;2023-05-23T00:23:39;100205.94;;;14.08;89.24
61682;BME280;47577;43.610;25.010;2023-05-23T00:26:07;100208.06;;;14.02;89.85
61682;BME280;47577;43.610;25.010;2023-05-23T00:28:33;100205.41;;;14.02;89.86
61682;BME280;47577;43.610;25.010;2023-05-23T00:30:58;100205.47;;;14.00;89.58
61682;BME280;47577;43.610;25.010;2023-05-23T00:33:24;100203.72;;;13.99;90.12
61682;BME280;47577;43.610;25.010;2023-05-23T00:35:50;100196.44;;;14.03;90.53
61682;BME280;47577;43.610;25.010;2023-05-23T00:38:16;100200.91;;;13.85;91.39
61682;BME280;47577;43.610;25.010;2023-05-23T00:40:41;100200.34;;;13.96;89.41
61682;BME280;47577;43.610;25.010;2023-05-23T00:43:07;100191.78;;;13.89;90.16
61682;BME280;47577;43.610;25.010;2023-05-23T00:45:33;100194.94;;;13.97;88.95
61682;BME280;47577;43.610;25.010;2023-05-23T00:47:59;100188.72;;;13.97;91.12
61682;BME280;47577;43.610;25.010;2023-05-23T00:50:26;100186.84;;;13.99;89.26
61682;BME280;47577;43.610;25.010;2023-05-23T00:52:56;100191.41;;;13.97;90.31
61682;BME280;47577;43.610;25.010;2023-05-23T00:55:23;100198.00;;;13.89;88.01
61682;BME280;47577;43.610;25.010;2023-05-23T00:57:51;100189.41;;;13.83;87.74
61682;BME280;47577;43.610;25.010;2023-05-23T01:00:20;100194.31;;;13.92;89.70
61682;BME280;47577;43.610;25.010;2023-05-23T01:02:47;100189.34;;;13.84;89.35
61682;BME280;47577;43.610;25.010;2023-05-23T01:05:16;100188.00;;;13.58;90.87
61682;BME280;47577;43.610;25.010;2023-05-23T01:07:46;100182.41;;;13.63;90.97
61682;BME280;47577;43.610;25.010;2023-05-23T01:10:14;100185.34;;;13.76;90.57
61682;BME280;47577;43.610;25.010;2023-05-23T01:15:49;100180.63;;;13.81;89.38
61682;BME280;47577;43.610;25.010;2023-05-23T01:18:45;100180.41;;;13.85;90.05
61682;BME280;47577;43.610;25.010;2023-05-23T01:21:17;100186.66;;;13.84;89.38
61682;BME280;47577;43.610;25.010;2023-05-23T01:29:12;100190.13;;;13.32;96.95
61682;BME280;47577;43.610;25.010;2023-05-23T01:31:42;100190.72;;;13.57;91.95
61682;BME280;47577;43.610;25.010;2023-05-23T01:34:11;100190.50;;;13.61;89.97
61682;BME280;47577;43.610;25.010;2023-05-23T01:36:42;100184.47;;;13.58;89.37
61682;BME280;47577;43.610;25.010;2023-05-23T01:39:08;100176.13;;;13.46;87.76
61682;BME280;47577;43.610;25.010;2023-05-23T01:41:34;100187.50;;;13.50;89.31
61682;BME280;47577;43.610;25.010;2023-05-23T01:44:00;100191.34;;;13.25;90.14
61682;BME280;47577;43.610;25.010;2023-05-23T01:46:27;100183.34;;;13.25;89.93
61682;BME280;47577;43.610;25.010;2023-05-23T01:48:54;100196.25;;;13.34;90.62
61682;BME280;47577;43.610;25.010;2023-05-23T01:51:22;100201.38;;;13.39;91.41
61682;BME280;47577;43.610;25.010;2023-05-23T01:53:49;100193.44;;;13.38;91.31
61682;BME280;47577;43.610;25.010;2023-05-23T01:56:15;100193.72;;;13.31;90.51
61682;BME280;47577;43.610;25.010;2023-05-23T01:58:42;100188.47;;;13.30;88.38
61682;BME280;47577;43.610;25.010;2023-05-23T02:01:08;100198.47;;;13.25;90.55
61682;BME280;47577;43.610;25.010;2023-05-23T02:03:34;100196.69;;;13.25;90.70
61682;BME280;47577;43.610;25.010;2023-05-23T02:06:01;100198.41;;;13.26;91.11
61682;BME280;47577;43.610;25.010;2023-05-23T02:08:26;100203.25;;;13.18;90.59
61682;BME280;47577;43.610;25.010;2023-05-23T02:10:52;100209.09;;;13.07;89.34
61682;BME280;47577;43.610;25.010;2023-05-23T02:13:18;100208.16;;;13.08;89.68
61682;BME280;47577;43.610;25.010;2023-05-23T02:15:43;100209.91;;;13.09;91.84
61682;BME280;47577;43.610;25.010;2023-05-23T02:18:09;100210.59;;;13.13;89.18
61682;BME280;47577;43.610;25.010;2023-05-23T02:20:34;100217.97;;;13.08;88.10
61682;BME280;47577;43.610;25.010;2023-05-23T02:23:00;100214.44;;;13.07;88.11
61682;BME280;47577;43.610;25.010;2023-05-23T02:25:26;100212.78;;;13.05;90.96
61682;BME280;47577;43.610;25.010;2023-05-23T02:27:51;100209.47;;;12.99;90.45
61682;BME280;47577;43.610;25.010;2023-05-23T02:30:17;100221.78;;;13.02;89.38
61682;BME280;47577;43.610;25.010;2023-05-23T02:32:43;100217.69;;;12.95;88.21
61682;BME280;47577;43.610;25.010;2023-05-23T02:35:08;100217.88;;;12.90;90.05
61682;BME280;47577;43.610;25.010;2023-05-23T02:37:35;100224.69;;;12.97;90.03
61682;BME280;47577;43.610;25.010;2023-05-23T02:40:00;100203.72;;;12.69;89.52
61682;BME280;47577;43.610;25.010;2023-05-23T02:42:26;100228.91;;;12.64;91.99
61682;BME280;47577;43.610;25.010;2023-05-23T02:44:52;100226.91;;;12.48;92.33
61682;BME280;47577;43.610;25.010;2023-05-23T02:47:17;100231.06;;;12.35;93.63
61682;BME280;47577;43.610;25.010;2023-05-23T02:49:43;100242.31;;;12.21;94.46
61682;BME280;47577;43.610;25.010;2023-05-23T02:52:09;100248.75;;;12.36;93.77
61682;BME280;47577;43.610;25.010;2023-05-23T02:54:34;100235.22;;;12.40;92.02
61682;BME280;47577;43.610;25.010;2023-05-23T02:57:00;100237.31;;;12.34;92.88
61682;BME280;47577;43.610;25.010;2023-05-23T02:59:25;100244.72;;;12.27;92.35
61682;BME280;47577;43.610;25.010;2023-05-23T03:01:51;100243.84;;;12.06;94.98
61682;BME280;47577;43.610;25.010;2023-05-23T03:04:17;100249.31;;;12.23;93.83
61682;BME280;47577;43.610;25.010;2023-05-23T03:06:42;100239.31;;;12.29;92.65
61682;BME280;47577;43.610;25.010;2023-05-23T03:09:08;100260.31;;;12.36;92.38
61682;BME280;47577;43.610;25.010;2023-05-23T03:11:35;100249.06;;;12.30;91.50
61682;BME280;47577;43.610;25.010;2023-05-23T03:14:00;100242.09;;;12.25;92.18
61682;BME280;47577;43.610;25.010;2023-05-23T03:16:26;100243.44;;;12.36;92.03
61682;BME280;47577;43.610;25.010;2023-05-23T03:18:51;100248.50;;;12.42;92.29
61682;BME280;47577;43.610;25.010;2023-05-23T03:21:17;100246.31;;;12.31;93.17
61682;BME280;47577;43.610;25.010;2023-05-23T03:23:43;100239.91;;;12.35;92.38
61682;BME280;47577;43.610;25.010;2023-05-23T03:26:08;100244.91;;;12.43;92.35
61682;BME280;47577;43.610;25.010;2023-05-23T03:28:34;100253.31;;;12.54;92.86
61682;BME280;47577;43.610;25.010;2023-05-23T03:30:59;100243.09;;;12.64;92.74
61682;BME280;47577;43.610;25.010;2023-05-23T03:33:25;100252.66;;;12.68;92.83
61682;BME280;47577;43.610;25.010;2023-05-23T03:35:51;100235.16;;;12.62;94.13
61682;BME280;47577;43.610;25.010;2023-05-23T03:38:17;100243.53;;;12.74;94.91
61682;BME280;47577;43.610;25.010;2023-05-23T03:40:43;100253.28;;;12.94;94.79
61682;BME280;47577;43.610;25.010;2023-05-23T03:57:52;100250.19;;;14.32;89.50
61682;BME280;47577;43.610;25.010;2023-05-23T04:00:18;100262.25;;;14.23;89.34
61682;BME280;47577;43.610;25.010;2023-05-23T04:02:44;100261.78;;;14.15;90.74
61682;BME280;47577;43.610;25.010;2023-05-23T04:05:11;100262.72;;;14.14;91.25
61682;BME280;47577;43.610;25.010;2023-05-23T04:07:38;100267.59;;;14.23;91.64
61682;BME280;47577;43.610;25.010;2023-05-23T04:10:04;100270.97;;;14.26;93.15
61682;BME280;47577;43.610;25.010;2023-05-23T04:12:30;100265.31;;;14.33;92.35
61682;BME280;47577;43.610;25.010;2023-05-23T04:14:56;100274.41;;;14.46;91.27
61682;BME280;47577;43.610;25.010;2023-05-23T04:17:24;100265.78;;;14.58;90.91
61682;BME280;47577;43.610;25.010;2023-05-23T04:19:51;100277.25;;;14.78;89.08
61682;BME280;47577;43.610;25.010;2023-05-23T04:22:16;100280.06;;;14.92;88.30
61682;BME280;47577;43.610;25.010;2023-05-23T04:24:42;100267.97;;;15.01;89.27
61682;BME280;47577;43.610;25.010;2023-05-23T04:27:08;100260.63;;;15.05;89.35
61682;BME280;47577;43.610;25.010;2023-05-23T04:29:34;100276.56;;;15.24;91.04
61682;BME280;47577;43.610;25.010;2023-05-23T04:32:01;100263.78;;;15.29;90.92
61682;BME280;47577;43.610;25.010;2023-05-23T04:34:27;100271.41;;;15.52;89.83
61682;BME280;47577;43.610;25.010;2023-05-23T04:36:52;100265.09;;;15.53;88.29
61682;BME280;47577;43.610;25.010;2023-05-23T04:39:19;100277.97;;;15.63;88.86
61682;BME280;47577;43.610;25.010;2023-05-23T04:41:45;100262.59;;;15.66;88.95
61682;BME280;47577;43.610;25.010;2023-05-23T04:44:11;100266.72;;;15.72;88.65
61682;BME280;47577;43.610;25.010;2023-05-23T04:46:38;100252.81;;;15.65;88.32
61682;BME280;47577;43.610;25.010;2023-05-23T04:49:06;100276.41;;;15.75;87.95
61682;BME280;47577;43.610;25.010;2023-05-23T04:51:32;100260.44;;;15.73;87.91
61682;BME280;47577;43.610;25.010;2023-05-23T04:53:58;100264.41;;;15.82;89.23
61682;BME280;47577;43.610;25.010;2023-05-23T04:56:23;100258.44;;;15.93;87.56
61682;BME280;47577;43.610;25.010;2023-05-23T04:58:52;100253.31;;;16.04;88.63
61682;BME280;47577;43.610;25.010;2023-05-23T05:01:18;100253.63;;;16.14;88.30
61682;BME280;47577;43.610;25.010;2023-05-23T05:03:44;100259.31;;;16.23;86.78
61682;BME280;47577;43.610;25.010;2023-05-23T05:06:09;100262.94;;;16.22;85.85
61682;BME280;47577;43.610;25.010;2023-05-23T05:08:35;100257.53;;;16.38;85.91
61682;BME280;47577;43.610;25.010;2023-05-23T05:11:01;100257.53;;;16.38;85.51
61682;BME280;47577;43.610;25.010;2023-05-23T05:13:27;100262.06;;;16.52;85.35
61682;BME280;47577;43.610;25.010;2023-05-23T05:15:52;100265.06;;;16.62;85.04
61682;BME280;47577;43.610;25.010;2023-05-23T05:18:21;100263.91;;;16.80;85.65
61682;BME280;47577;43.610;25.010;2023-05-23T05:20:46;100267.97;;;17.02;84.10
61682;BME280;47577;43.610;25.010;2023-05-23T05:23:12;100259.44;;;17.10;78.33
61682;BME280;47577;43.610;25.010;2023-05-23T05:25:38;100258.84;;;17.19;77.42
61682;BME280;47577;43.610;25.010;2023-05-23T05:28:05;100259.59;;;17.35;75.90
61682;BME280;47577;43.610;25.010;2023-05-23T05:30:31;100272.91;;;17.51;76.60
61682;BME280;47577;43.610;25.010;2023-05-23T05:33:04;100277.06;;;17.70;77.86
61682;BME280;47577;43.610;25.010;2023-05-23T05:35:33;100260.34;;;17.79;77.28
61682;BME280;47577;43.610;25.010;2023-05-23T05:38:00;100258.69;;;17.77;77.88
61682;BME280;47577;43.610;25.010;2023-05-23T05:40:26;100256.09;;;17.89;78.08
61682;BME280;47577;43.610;25.010;2023-05-23T05:42:52;100259.34;;;17.95;78.87
61682;BME280;47577;43.610;25.010;2023-05-23T05:45:18;100248.94;;;18.03;76.91
61682;BME280;47577;43.610;25.010;2023-05-23T05:47:44;100271.47;;;18.15;77.73
61682;BME280;47577;43.610;25.010;2023-05-23T05:50:10;100267.28;;;18.23;79.04
61682;BME280;47577;43.610;25.010;2023-05-23T05:52:36;100262.91;;;18.35;78.63
61682;BME280;47577;43.610;25.010;2023-05-23T05:55:08;100269.16;;;18.49;79.11
61682;BME280;47577;43.610;25.010;2023-05-23T05:57:38;100265.94;;;18.56;79.56
61682;BME280;47577;43.610;25.010;2023-05-23T06:00:09;100273.03;;;18.57;79.72
61682;BME280;47577;43.610;25.010;2023-05-23T06:02:40;100277.78;;;18.67;81.89
61682;BME280;47577;43.610;25.010;2023-05-23T06:05:12;100282.34;;;18.79;82.42
61682;BME280;47577;43.610;25.010;2023-05-23T06:07:41;100280.69;;;18.76;82.22
61682;BME280;47577;43.610;25.010;2023-05-23T06:10:07;100284.72;;;18.84;85.59
61682;BME280;47577;43.610;25.010;2023-05-23T06:12:36;100288.28;;;18.84;84.87
61682;BME280;47577;43.610;25.010;2023-05-23T06:15:02;100292.91;;;18.95;85.19
61682;BME280;47577;43.610;25.010;2023-05-23T06:17:27;100293.66;;;18.97;82.52
61682;BME280;47577;43.610;25.010;2023-05-23T06:19:53;100284.16;;;18.78;82.43
61682;BME280;47577;43.610;25.010;2023-05-23T06:22:19;100283.94;;;18.81;83.11
61682;BME280;47577;43.610;25.010;2023-05-23T06:24:44;100276.53;;;18.85;82.30
61682;BME280;47577;43.610;25.010;2023-05-23T06:27:11;100280.75;;;18.89;84.98
61682;BME280;47577;43.610;25.010;2023-05-23T06:29:37;100292.25;;;19.04;82.33
61682;BME280;47577;43.610;25.010;2023-05-23T06:32:03;100292.25;;;19.17;82.94
61682;BME280;47577;43.610;25.010;2023-05-23T06:34:29;100284.16;;;19.17;78.79
61682;BME280;47577;43.610;25.010;2023-05-23T06:36:54;100282.41;;;19.16;76.77
61682;BME280;47577;43.610;25.010;2023-05-23T06:39:20;100289.19;;;19.34;75.05
61682;BME280;47577;43.610;25.010;2023-05-23T06:41:46;100288.66;;;19.42;74.10
61682;BME280;47577;43.610;25.010;2023-05-23T06:44:12;100272.78;;;19.50;76.10
61682;BME280;47577;43.610;25.010;2023-05-23T06:46:38;100279.94;;;19.63;74.68
61682;BME280;47577;43.610;25.010;2023-05-23T06:49:04;100272.03;;;19.72;72.90
61682;BME280;47577;43.610;25.010;2023-05-23T06:51:30;100274.44;;;19.64;71.39
61682;BME280;47577;43.610;25.010;2023-05-23T06:53:56;100274.00;;;19.70;73.99
61682;BME280;47577;43.610;25.010;2023-05-23T06:56:22;100277.88;;;19.79;71.18
61682;BME280;47577;43.610;25.010;2023-05-23T06:58:48;100273.28;;;19.93;72.19
61682;BME280;47577;43.610;25.010;2023-05-23T07:01:13;100275.88;;;19.94;70.66
61682;BME280;47577;43.610;25.010;2023-05-23T07:03:39;100282.19;;;20.06;71.10
61682;BME280;47577;43.610;25.010;2023-05-23T07:06:07;100275.06;;;20.05;70.68
61682;BME280;47577;43.610;25.010;2023-05-23T07:08:33;100275.06;;;20.05;72.15
61682;BME280;47577;43.610;25.010;2023-05-23T07:10:59;100273.28;;;20.17;72.53
61682;BME280;47577;43.610;25.010;2023-05-23T07:13:24;100272.69;;;20.24;73.11
61682;BME280;47577;43.610;25.010;2023-05-23T07:15:50;100275.50;;;20.23;68.91
61682;BME280;47577;43.610;25.010;2023-05-23T07:18:16;100277.97;;;20.26;69.45
61682;BME280;47577;43.610;25.010;2023-05-23T07:20:41;100272.72;;;20.36;70.90
61682;BME280;47577;43.610;25.010;2023-05-23T07:23:07;100276.50;;;20.22;70.14
61682;BME280;47577;43.610;25.010;2023-05-23T07:25:32;100278.25;;;20.45;67.93
61682;BME280;47577;43.610;25.010;2023-05-23T07:27:58;100285.00;;;20.64;69.78
61682;BME280;47577;43.610;25.010;2023-05-23T07:30:24;100276.66;;;20.78;69.04
61682;BME280;47577;43.610;25.010;2023-05-23T07:32:50;100280.47;;;20.87;69.27
61682;BME280;47577;43.610;25.010;2023-05-23T07:35:17;100277.66;;;20.89;67.32
61682;BME280;47577;43.610;25.010;2023-05-23T07:37:43;100278.88;;;20.96;64.76
61682;BME280;47577;43.610;25.010;2023-05-23T07:40:08;100281.09;;;21.02;67.92
61682;BME280;47577;43.610;25.010;2023-05-23T07:42:34;100276.06;;;21.09;67.84
61682;BME280;47577;43.610;25.010;2023-05-23T07:45:01;100278.63;;;21.22;66.25
61682;BME280;47577;43.610;25.010;2023-05-23T07:47:26;100274.59;;;21.27;65.24
61682;BME280;47577;43.610;25.010;2023-05-23T07:49:52;100278.38;;;21.36;67.14
61682;BME280;47577;43.610;25.010;2023-05-23T07:52:18;100273.47;;;21.41;64.82
61682;BME280;47577;43.610;25.010;2023-05-23T07:54:44;100274.47;;;21.40;64.34
61682;BME280;47577;43.610;25.010;2023-05-23T07:57:10;100267.47;;;21.49;66.81
61682;BME280;47577;43.610;25.010;2023-05-23T07:59:37;100275.81;;;21.57;64.92
61682;BME280;47577;43.610;25.010;2023-05-23T08:02:03;100270.13;;;21.71;65.34
61682;BME280;47577;43.610;25.010;2023-05-23T08:04:29;100265.66;;;21.82;61.41
61682;BME280;47577;43.610;25.010;2023-05-23T08:06:55;100262.53;;;21.98;60.48
61682;BME280;47577;43.610;25.010;2023-05-23T08:09:23;100258.94;;;22.08;62.83
61682;BME280;47577;43.610;25.010;2023-05-23T08:11:49;100248.69;;;22.12;60.47
61682;BME280;47577;43.610;25.010;2023-05-23T08:14:15;100254.19;;;22.22;59.41
61682;BME280;47577;43.610;25.010;2023-05-23T08:16:40;100256.94;;;22.10;56.36
61682;BME280;47577;43.610;25.010;2023-05-23T08:19:06;100250.38;;;22.24;59.27
61682;BME280;47577;43.610;25.010;2023-05-23T08:21:33;100247.97;;;22.42;59.91
61682;BME280;47577;43.610;25.010;2023-05-23T08:23:58;100230.44;;;22.46;57.32
61682;BME280;47577;43.610;25.010;2023-05-23T08:26:24;100235.47;;;22.51;56.51
61682;BME280;47577;43.610;25.010;2023-05-23T08:28:52;100232.31;;;22.46;56.87
61682;BME280;47577;43.610;25.010;2023-05-23T08:31:17;100239.44;;;22.68;56.52
61682;BME280;47577;43.610;25.010;2023-05-23T08:33:43;100235.03;;;22.77;55.37
61682;BME280;47577;43.610;25.010;2023-05-23T08:36:09;100235.22;;;22.85;55.32
61682;BME280;47577;43.610;25.010;2023-05-23T08:38:35;100239.41;;;22.89;54.96
61682;BME280;47577;43.610;25.010;2023-05-23T08:41:01;100232.47;;;23.06;54.29
61682;BME280;47577;43.610;25.010;2023-05-23T08:43:27;100236.00;;;23.18;55.75
61682;BME280;47577;43.610;25.010;2023-05-23T08:45:53;100228.47;;;23.31;53.76
61682;BME280;47577;43.610;25.010;2023-05-23T08:48:19;100235.16;;;23.37;54.86
61682;BME280;47577;43.610;25.010;2023-05-23T08:50:46;100228.63;;;23.49;51.42
61682;BME280;47577;43.610;25.010;2023-05-23T08:53:16;100234.38;;;23.66;53.73
61682;BME280;47577;43.610;25.010;2023-05-23T08:55:48;100236.94;;;23.67;50.27
61682;BME280;47577;43.610;25.010;2023-05-23T08:58:18;100223.25;;;23.69;52.58
61682;BME280;47577;43.610;25.010;2023-05-23T09:00:46;100229.72;;;23.87;55.71
61682;BME280;47577;43.610;25.010;2023-05-23T09:03:12;100224.84;;;23.81;53.06
61682;BME280;47577;43.610;25.010;2023-05-23T09:05:38;100223.72;;;23.94;48.82
61682;BME280;47577;43.610;25.010;2023-05-23T09:08:04;100222.72;;;23.95;48.63
61682;BME280;47577;43.610;25.010;2023-05-23T09:10:30;100220.28;;;24.01;48.86
61682;BME280;47577;43.610;25.010;2023-05-23T09:12:56;100214.72;;;24.13;46.12
61682;BME280;47577;43.610;25.010;2023-05-23T09:15:22;100220.56;;;23.98;47.49
61682;BME280;47577;43.610;25.010;2023-05-23T09:17:48;100219.56;;;24.19;49.59
61682;BME280;47577;43.610;25.010;2023-05-23T09:20:16;100222.56;;;24.35;51.55
61682;BME280;47577;43.610;25.010;2023-05-23T09:22:48;100212.69;;;24.34;46.78
61682;BME280;47577;43.610;25.010;2023-05-23T09:25:14;100221.97;;;24.41;45.87
61682;BME280;47577;43.610;25.010;2023-05-23T09:27:41;100219.56;;;24.38;44.45
61682;BME280;47577;43.610;25.010;2023-05-23T09:30:09;100220.81;;;24.34;45.34
61682;BME280;47577;43.610;25.010;2023-05-23T09:32:35;100217.38;;;24.52;47.89
61682;BME280;47577;43.610;25.010;2023-05-23T09:35:02;100223.34;;;24.55;49.75
61682;BME280;47577;43.610;25.010;2023-05-23T09:37:30;100227.97;;;24.64;50.29
61682;BME280;47577;43.610;25.010;2023-05-23T09:39:58;100212.94;;;24.70;48.76
61682;BME280;47577;43.610;25.010;2023-05-23T09:42:25;100211.56;;;24.84;47.39
61682;BME280;47577;43.610;25.010;2023-05-23T09:44:55;100220.72;;;24.83;47.96
61682;BME280;47577;43.610;25.010;2023-05-23T09:47:21;100214.03;;;24.77;46.99
61682;BME280;47577;43.610;25.010;2023-05-23T09:49:46;100207.19;;;24.54;49.60
61682;BME280;47577;43.610;25.010;2023-05-23T09:52:12;100215.16;;;24.85;47.33
61682;BME280;47577;43.610;25.010;2023-05-23T09:54:38;100215.25;;;25.03;53.36
61682;BME280;47577;43.610;25.010;2023-05-23T09:57:09;100216.16;;;25.21;49.27
61682;BME280;47577;43.610;25.010;2023-05-23T09:59:39;100214.09;;;24.95;46.06
61682;BME280;47577;43.610;25.010;2023-05-23T10:02:10;100204.84;;;24.88;48.72
61682;BME280;47577;43.610;25.010;2023-05-23T10:04:38;100207.94;;;25.03;51.02
61682;BME280;47577;43.610;25.010;2023-05-23T10:07:19;100203.78;;;24.99;50.31
61682;BME280;47577;43.610;25.010;2023-05-23T10:09:55;100195.28;;;25.12;46.23
61682;BME280;47577;43.610;25.010;2023-05-23T10:15:00;100196.25;;;25.48;49.71
61682;BME280;47577;43.610;25.010;2023-05-23T10:17:51;100188.25;;;25.65;49.11
61682;BME280;47577;43.610;25.010;2023-05-23T10:20:21;100185.00;;;25.79;47.95
61682;BME280;47577;43.610;25.010;2023-05-23T10:22:49;100188.78;;;25.86;48.31
61682;BME280;47577;43.610;25.010;2023-05-23T10:25:15;100190.44;;;26.15;46.94
61682;BME280;47577;43.610;25.010;2023-05-23T10:27:41;100187.66;;;26.07;46.79
61682;BME280;47577;43.610;25.010;2023-05-23T10:30:08;100180.69;;;26.13;50.62
61682;BME280;47577;43.610;25.010;2023-05-23T10:32:36;100181.47;;;26.23;47.17
61682;BME280;47577;43.610;25.010;2023-05-23T10:35:16;100181.31;;;26.24;45.03
61682;BME280;47577;43.610;25.010;2023-05-23T10:40:36;100175.09;;;26.32;44.63
61682;BME280;47577;43.610;25.010;2023-05-23T10:43:26;100167.13;;;26.39;46.12
61682;BME280;47577;43.610;25.010;2023-05-23T10:45:53;100176.97;;;26.14;44.29
61682;BME280;47577;43.610;25.010;2023-05-23T10:48:35;100165.34;;;26.30;45.73
61682;BME280;47577;43.610;25.010;2023-05-23T10:51:12;100175.34;;;26.47;45.02
61682;BME280;47577;43.610;25.010;2023-05-23T10:53:43;100172.28;;;26.68;47.21
61682;BME280;47577;43.610;25.010;2023-05-23T10:56:10;100171.81;;;26.81;46.30
61682;BME280;47577;43.610;25.010;2023-05-23T10:58:43;100169.53;;;26.68;45.09
61682;BME280;47577;43.610;25.010;2023-05-23T11:01:12;100168.38;;;26.26;42.52
61682;BME280;47577;43.610;25.010;2023-05-23T11:06:39;100159.16;;;26.01;42.67
61682;BME280;47577;43.610;25.010;2023-05-23T11:09:18;100153.88;;;26.18;46.42
61682;BME280;47577;43.610;25.010;2023-05-23T11:11:52;100148.69;;;26.33;40.62
61682;BME280;47577;43.610;25.010;2023-05-23T11:17:00;100140.41;;;26.42;41.12
61682;BME280;47577;43.610;25.010;2023-05-23T11:19:27;100141.34;;;26.07;40.22
61682;BME280;47577;43.610;25.010;2023-05-23T11:21:54;100143.59;;;26.12;42.66
61682;BME280;47577;43.610;25.010;2023-05-23T11:24:20;100129.91;;;25.85;42.77
61682;BME280;47577;43.610;25.010;2023-05-23T11:26:54;100139.34;;;25.73;42.49
61682;BME280;47577;43.610;25.010;2023-05-23T11:29:25;100134.81;;;25.82;45.94
61682;BME280;47577;43.610;25.010;2023-05-23T11:31:50;100139.56;;;25.98;39.97
61682;BME280;47577;43.610;25.010;2023-05-23T11:34:17;100132.22;;;25.80;38.00
61682;BME280;47577;43.610;25.010;2023-05-23T11:36:43;100129.13;;;25.75;40.19
61682;BME280;47577;43.610;25.010;2023-05-23T11:39:09;100124.63;;;26.02;39.54
61682;BME280;47577;43.610;25.010;2023-05-23T11:41:35;100123.16;;;25.71;37.93
61682;BME280;47577;43.610;25.010;2023-05-23T11:44:00;100128.66;;;25.98;42.37
61682;BME280;47577;43.610;25.010;2023-05-23T11:46:26;100124.47;;;26.30;41.12
61682;BME280;47577;43.610;25.010;2023-05-23T11:48:52;100122.13;;;26.08;40.50
61682;BME280;47577;43.610;25.010;2023-05-23T11:51:18;100108.63;;;26.59;39.82
61682;BME280;47577;43.610;25.010;2023-05-23T11:53:46;100115.94;;;26.93;40.05
61682;BME280;47577;43.610;25.010;2023-05-23T11:56:14;100110.03;;;27.14;37.73
61682;BME280;47577;43.610;25.010;2023-05-23T11:58:40;100105.88;;;26.86;37.36
61682;BME280;47577;43.610;25.010;2023-05-23T12:01:11;100096.97;;;27.26;40.16
61682;BME280;47577;43.610;25.010;2023-05-23T12:03:48;100108.59;;;27.45;40.27
61682;BME280;47577;43.610;25.010;2023-05-23T12:06:14;100102.47;;;27.84;38.23
61682;BME280;47577;43.610;25.010;2023-05-23T12:08:40;100109.34;;;27.96;36.56
61682;BME280;47577;43.610;25.010;2023-05-23T12:11:06;100098.47;;;27.29;34.85
61682;BME280;47577;43.610;25.010;2023-05-23T12:13:32;100109.13;;;27.73;38.49
61682;BME280;47577;43.610;25.010;2023-05-23T12:15:59;100113.41;;;27.92;34.38
61682;BME280;47577;43.610;25.010;2023-05-23T12:18:30;100096.00;;;27.60;34.08
61682;BME280;47577;43.610;25.010;2023-05-23T12:21:01;100097.91;;;28.01;35.17
61682;BME280;47577;43.610;25.010;2023-05-23T12:23:27;100093.69;;;28.38;36.87
61682;BME280;47577;43.610;25.010;2023-05-23T12:25:55;100099.53;;;28.43;38.31
61682;BME280;47577;43.610;25.010;2023-05-23T12:28:33;100106.53;;;28.29;38.09
61682;BME280;47577;43.610;25.010;2023-05-23T12:31:10;100118.19;;;27.90;38.75
61682;BME280;47577;43.610;25.010;2023-05-23T12:33:37;100121.25;;;27.54;40.73
61682;BME280;47577;43.610;25.010;2023-05-23T12:36:02;100115.63;;;26.96;43.14
61682;BME280;47577;43.610;25.010;2023-05-23T12:38:28;100123.84;;;26.36;45.36
61682;BME280;47577;43.610;25.010;2023-05-23T12:41:19;100119.75;;;25.69;47.01
61682;BME280;47577;43.610;25.010;2023-05-23T12:43:53;100123.84;;;25.38;47.94
61682;BME280;47577;43.610;25.010;2023-05-23T12:46:23;100128.25;;;24.93;49.57
61682;BME280;47577;43.610;25.010;2023-05-23T12:48:50;100136.34;;;24.75;50.51
61682;BME280;47577;43.610;25.010;2023-05-23T12:51:16;100125.13;;;24.60;51.86
61682;BME280;47577;43.610;25.010;2023-05-23T12:53:42;100109.16;;;24.37;52.20
61682;BME280;47577;43.610;25.010;2023-05-23T12:56:08;100114.59;;;24.37;50.33
61682;BME280;47577;43.610;25.010;2023-05-23T12:58:34;100116.81;;;24.14;50.67
61682;BME280;47577;43.610;25.010;2023-05-23T13:01:00;100129.84;;;24.01;51.46
61682;BME280;47577;43.610;25.010;2023-05-23T13:03:26;100138.72;;;23.93;52.40
61682;BME280;47577;43.610;25.010;2023-05-23T13:05:53;100132.69;;;23.70;54.65
61682;BME280;47577;43.610;25.010;2023-05-23T13:08:20;100132.72;;;23.60;53.33
61682;BME280;47577;43.610;25.010;2023-05-23T13:10:45;100130.94;;;23.20;54.85
61682;BME280;47577;43.610;25.010;2023-05-23T13:13:11;100132.94;;;23.08;55.80
61682;BME280;47577;43.610;25.010;2023-05-23T13:15:36;100135.50;;;23.10;54.05